sensor_id;sensor_type;location;lat;lon;timestamp;pressure;altitude;pressure_sealevel;temperature;humidity
80976;BME280;70437;49.466;11.002;2024-03-02T00:00:04;97097.38;;;7.62;100.00
80976;BME280;70437;49.466;11.002;2024-03-02T00:02:53;97096.31;;;7.63;100.00
80976;BME280;70437;49.466;11.002;2024-03-02T00:05:23;97097.28;;;7.69;100.00
80976;BME280;70437;49.466;11.002;2024-03-02T00:07:55;97085.56;;;7.70;100.00
80976;BME280;70437;49.466;11.002;2024-03-02T00:10:35;97092.41;;;7.66;100.00
80976;BME280;70437;49.466;11.002;2024-03-02T00:13:09;97088.25;;;7.70;100.00
80976;BME280;70437;49.466;11.002;2024-03-02T00:15:42;97082.44;;;7.73;100.00
80976;BME280;70437;49.466;11.002;2024-03-02T00:18:19;97093.81;;;7.68;100.00
80976;BME280;70437;49.466;11.002;2024-03-02T00:20:53;97088.00;;;7.59;100.00
80976;BME280;70437;49.466;11.002;2024-03-02T00:23:29;97088.13;;;7.65;100.00
80976;BME280;70437;49.466;11.002;2024-03-02T00:25:59;97090.66;;;7.71;100.00
80976;BME280;70437;49.466;11.002;2024-03-02T00:28:30;97088.25;;;7.70;100.00
80976;BME280;70437;49.466;11.002;2024-03-02T00:31:04;97091.81;;;7.75;100.00
80976;BME280;70437;49.466;11.002;2024-03-02T00:33:36;97090.09;;;7.81;100.00
80976;BME280;70437;49.466;11.002;2024-03-02T00:36:06;97090.56;;;7.78;100.00
80976;BME280;70437;49.466;11.002;2024-03-02T00:38:44;97091.38;;;7.78;100.00
80976;BME280;70437;49.466;11.002;2024-03-02T00:41:21;97086.41;;;7.82;100.00
80976;BME280;70437;49.466;11.002;2024-03-02T00:43:58;97083.38;;;7.78;100.00
80976;BME280;70437;49.466;11.002;2024-03-02T00:46:29;97091.47;;;7.72;100.00
80976;BME280;70437;49.466;11.002;2024-03-02T00:49:03;97093.13;;;7.73;100.00
80976;BME280;70437;49.466;11.002;2024-03-02T00:51:35;97097.28;;;7.69;100.00
80976;BME280;70437;49.466;11.002;2024-03-02T00:54:07;97098.09;;;7.69;100.00
80976;BME280;70437;49.466;11.002;2024-03-02T00:56:41;97099.59;;;7.65;100.00
80976;BME280;70437;49.466;11.002;2024-03-02T00:59:13;97098.41;;;7.61;100.00
80976;BME280;70437;49.466;11.002;2024-03-02T01:01:44;97097.25;;;7.57;100.00
80976;BME280;70437;49.466;11.002;2024-03-02T01:04:17;97091.69;;;7.58;100.00
80976;BME280;70437;49.466;11.002;2024-03-02T01:06:47;97096.44;;;7.56;100.00
80976;BME280;70437;49.466;11.002;2024-03-02T01:09:25;97106.38;;;7.49;100.00
80976;BME280;70437;49.466;11.002;2024-03-02T01:11:56;97104.66;;;7.43;100.00
80976;BME280;70437;49.466;11.002;2024-03-02T01:14:26;97098.94;;;7.40;100.00
80976;BME280;70437;49.466;11.002;2024-03-02T01:16:57;97103.91;;;7.36;100.00
80976;BME280;70437;49.466;11.002;2024-03-02T01:19:28;97102.31;;;7.35;100.00
80976;BME280;70437;49.466;11.002;2024-03-02T01:21:59;97101.06;;;7.38;100.00
80976;BME280;70437;49.466;11.002;2024-03-02T01:24:29;97098.59;;;7.36;100.00
80976;BME280;70437;49.466;11.002;2024-03-02T01:26:58;97103.34;;;7.34;100.00
80976;BME280;70437;49.466;11.002;2024-03-02T01:29:27;97095.81;;;7.31;100.00
80976;BME280;70437;49.466;11.002;2024-03-02T01:31:56;97093.63;;;7.28;100.00
80976;BME280;70437;49.466;11.002;2024-03-02T01:34:29;97087.69;;;7.26;100.00
80976;BME280;70437;49.466;11.002;2024-03-02T01:36:58;97094.13;;;7.18;100.00
80976;BME280;70437;49.466;11.002;2024-03-02T01:39:27;97096.00;;;7.18;100.00
80976;BME280;70437;49.466;11.002;2024-03-02T01:41:58;97092.53;;;7.17;100.00
80976;BME280;70437;49.466;11.002;2024-03-02T01:44:29;97094.81;;;7.14;100.00
80976;BME280;70437;49.466;11.002;2024-03-02T01:46:58;97096.47;;;7.15;100.00
80976;BME280;70437;49.466;11.002;2024-03-02T01:49:30;97102.38;;;7.17;100.00
80976;BME280;70437;49.466;11.002;2024-03-02T01:52:02;97090.84;;;7.04;100.00
80976;BME280;70437;49.466;11.002;2024-03-02T01:54:31;97096.41;;;7.03;100.00
80976;BME280;70437;49.466;11.002;2024-03-02T01:57:01;97101.75;;;7.03;100.00
80976;BME280;70437;49.466;11.002;2024-03-02T01:59:38;97093.53;;;7.04;100.00
80976;BME280;70437;49.466;11.002;2024-03-02T02:02:08;97102.31;;;7.05;100.00
80976;BME280;70437;49.466;11.002;2024-03-02T02:04:40;97097.47;;;7.02;100.00
80976;BME280;70437;49.466;11.002;2024-03-02T02:07:10;97101.31;;;7.06;100.00
80976;BME280;70437;49.466;11.002;2024-03-02T02:09:42;97098.41;;;7.07;100.00
80976;BME280;70437;49.466;11.002;2024-03-02T02:12:12;97089.25;;;7.03;100.00
80976;BME280;70437;49.466;11.002;2024-03-02T02:14:47;97100.69;;;7.04;100.00
80976;BME280;70437;49.466;11.002;2024-03-02T02:17:18;97095.25;;;6.99;100.00
80976;BME280;70437;49.466;11.002;2024-03-02T02:19:51;97097.34;;;7.08;100.00
80976;BME280;70437;49.466;11.002;2024-03-02T02:22:23;97095.50;;;7.09;100.00
80976;BME280;70437;49.466;11.002;2024-03-02T02:24:52;97095.88;;;7.13;100.00
80976;BME280;70437;49.466;11.002;2024-03-02T02:27:21;97092.66;;;7.22;100.00
80976;BME280;70437;49.466;11.002;2024-03-02T02:29:52;97099.75;;;7.28;100.00
80976;BME280;70437;49.466;11.002;2024-03-02T02:32:23;97096.59;;;7.31;100.00
80976;BME280;70437;49.466;11.002;2024-03-02T02:34:52;97098.72;;;7.29;100.00
80976;BME280;70437;49.466;11.002;2024-03-02T02:37:25;97100.56;;;7.29;100.00
80976;BME280;70437;49.466;11.002;2024-03-02T02:39:56;97105.78;;;7.35;100.00
80976;BME280;70437;49.466;11.002;2024-03-02T02:42:25;97101.50;;;7.34;100.00
80976;BME280;70437;49.466;11.002;2024-03-02T02:44:54;97104.34;;;7.21;100.00
80976;BME280;70437;49.466;11.002;2024-03-02T02:47:25;97104.47;;;7.26;100.00
80976;BME280;70437;49.466;11.002;2024-03-02T02:49:57;97113.06;;;7.28;100.00
80976;BME280;70437;49.466;11.002;2024-03-02T02:52:33;97110.41;;;7.28;100.00
80976;BME280;70437;49.466;11.002;2024-03-02T02:55:08;97097.91;;;7.29;100.00
80976;BME280;70437;49.466;11.002;2024-03-02T02:57:39;97097.97;;;7.22;100.00
80976;BME280;70437;49.466;11.002;2024-03-02T03:00:12;97092.16;;;7.14;100.00
80976;BME280;70437;49.466;11.002;2024-03-02T03:02:45;97092.41;;;7.12;100.00
80976;BME280;70437;49.466;11.002;2024-03-02T03:05:17;97095.06;;;7.12;100.00
80976;BME280;70437;49.466;11.002;2024-03-02T03:07:49;97093.56;;;7.16;100.00
80976;BME280;70437;49.466;11.002;2024-03-02T03:10:18;97099.16;;;7.26;100.00
80976;BME280;70437;49.466;11.002;2024-03-02T03:12:51;97096.47;;;7.26;100.00
80976;BME280;70437;49.466;11.002;2024-03-02T03:15:22;97088.97;;;7.23;100.00
80976;BME280;70437;49.466;11.002;2024-03-02T03:17:50;97093.00;;;7.26;100.00
80976;BME280;70437;49.466;11.002;2024-03-02T03:20:19;97100.09;;;7.32;100.00
80976;BME280;70437;49.466;11.002;2024-03-02T03:22:51;97103.03;;;7.42;100.00
80976;BME280;70437;49.466;11.002;2024-03-02T03:25:23;97092.44;;;7.35;100.00
80976;BME280;70437;49.466;11.002;2024-03-02T03:27:52;97093.50;;;7.34;100.00
80976;BME280;70437;49.466;11.002;2024-03-02T03:30:21;97098.84;;;7.34;100.00
80976;BME280;70437;49.466;11.002;2024-03-02T03:32:50;97101.94;;;7.31;100.00
80976;BME280;70437;49.466;11.002;2024-03-02T03:35:20;97096.41;;;7.33;100.00
80976;BME280;70437;49.466;11.002;2024-03-02T03:37:51;97102.41;;;7.28;100.00
80976;BME280;70437;49.466;11.002;2024-03-02T03:40:24;97096.72;;;7.25;100.00
80976;BME280;70437;49.466;11.002;2024-03-02T03:42:55;97094.53;;;7.33;100.00
80976;BME280;70437;49.466;11.002;2024-03-02T03:45:24;97108.91;;;7.32;100.00
80976;BME280;70437;49.466;11.002;2024-03-02T03:47:54;97101.44;;;7.23;100.00
80976;BME280;70437;49.466;11.002;2024-03-02T03:50:24;97104.47;;;7.15;100.00
80976;BME280;70437;49.466;11.002;2024-03-02T03:52:57;97102.25;;;7.12;100.00
80976;BME280;70437;49.466;11.002;2024-03-02T03:55:27;97092.16;;;7.14;100.00
80976;BME280;70437;49.466;11.002;2024-03-02T03:57:57;97100.16;;;7.14;100.00
80976;BME280;70437;49.466;11.002;2024-03-02T04:00:27;97100.75;;;7.16;100.00
80976;BME280;70437;49.466;11.002;2024-03-02T04:02:57;97090.97;;;7.09;100.00
80976;BME280;70437;49.466;11.002;2024-03-02T04:05:27;97087.94;;;6.94;100.00
80976;BME280;70437;49.466;11.002;2024-03-02T04:08:00;97088.97;;;6.93;100.00
80976;BME280;70437;49.466;11.002;2024-03-02T04:10:29;97091.94;;;6.85;100.00
80976;BME280;70437;49.466;11.002;2024-03-02T04:12:59;97093.78;;;6.84;100.00
80976;BME280;70437;49.466;11.002;2024-03-02T04:15:28;97101.56;;;6.86;100.00
80976;BME280;70437;49.466;11.002;2024-03-02T04:17:57;97096.09;;;6.81;100.00
80976;BME280;70437;49.466;11.002;2024-03-02T04:20:28;97098.53;;;6.82;100.00
80976;BME280;70437;49.466;11.002;2024-03-02T04:22:59;97097.00;;;6.75;100.00
80976;BME280;70437;49.466;11.002;2024-03-02T04:25:31;97106.00;;;6.74;100.00
80976;BME280;70437;49.466;11.002;2024-03-02T04:28:00;97107.72;;;6.68;100.00
80976;BME280;70437;49.466;11.002;2024-03-02T04:30:32;97106.66;;;6.69;100.00
80976;BME280;70437;49.466;11.002;2024-03-02T04:33:04;97112.47;;;6.66;100.00
80976;BME280;70437;49.466;11.002;2024-03-02T04:35:37;97109.00;;;6.66;100.00
80976;BME280;70437;49.466;11.002;2024-03-02T04:38:08;97110.47;;;6.62;100.00
80976;BME280;70437;49.466;11.002;2024-03-02T04:40:37;97116.59;;;6.62;100.00
80976;BME280;70437;49.466;11.002;2024-03-02T04:43:07;97114.16;;;6.61;100.00
80976;BME280;70437;49.466;11.002;2024-03-02T04:45:38;97111.13;;;6.57;100.00
80976;BME280;70437;49.466;11.002;2024-03-02T04:48:08;97119.13;;;6.57;100.00
80976;BME280;70437;49.466;11.002;2024-03-02T04:50:37;97115.28;;;6.53;100.00
80976;BME280;70437;49.466;11.002;2024-03-02T04:53:08;97118.59;;;6.48;100.00
80976;BME280;70437;49.466;11.002;2024-03-02T04:55:39;97120.47;;;6.48;100.00
80976;BME280;70437;49.466;11.002;2024-03-02T04:58:22;97117.41;;;6.44;100.00
80976;BME280;70437;49.466;11.002;2024-03-02T05:00:51;97110.09;;;6.40;100.00
80976;BME280;70437;49.466;11.002;2024-03-02T05:03:23;97119.31;;;6.37;100.00
80976;BME280;70437;49.466;11.002;2024-03-02T05:05:54;97122.66;;;6.32;100.00
80976;BME280;70437;49.466;11.002;2024-03-02T05:08:25;97133.81;;;6.41;100.00
80976;BME280;70437;49.466;11.002;2024-03-02T05:10:55;97128.59;;;6.35;100.00
80976;BME280;70437;49.466;11.002;2024-03-02T05:13:47;97129.16;;;6.37;100.00
80976;BME280;70437;49.466;11.002;2024-03-02T05:16:16;97129.81;;;6.32;100.00
80976;BME280;70437;49.466;11.002;2024-03-02T05:18:45;97129.59;;;6.33;100.00
80976;BME280;70437;49.466;11.002;2024-03-02T05:21:17;97133.91;;;6.35;100.00
80976;BME280;70437;49.466;11.002;2024-03-02T05:23:48;97131.69;;;6.31;100.00
80976;BME280;70437;49.466;11.002;2024-03-02T05:26:17;97133.16;;;6.27;100.00
80976;BME280;70437;49.466;11.002;2024-03-02T05:28:46;97126.88;;;6.22;100.00
80976;BME280;70437;49.466;11.002;2024-03-02T05:31:17;97129.53;;;6.22;100.00
80976;BME280;70437;49.466;11.002;2024-03-02T05:33:47;97124.88;;;6.17;100.00
80976;BME280;70437;49.466;11.002;2024-03-02T05:36:19;97131.00;;;6.18;100.00
80976;BME280;70437;49.466;11.002;2024-03-02T05:38:51;97135.28;;;6.19;100.00
80976;BME280;70437;49.466;11.002;2024-03-02T05:41:23;97146.28;;;6.22;100.00
80976;BME280;70437;49.466;11.002;2024-03-02T05:43:53;97134.69;;;6.17;100.00
80976;BME280;70437;49.466;11.002;2024-03-02T05:46:23;97141.03;;;6.16;100.00
80976;BME280;70437;49.466;11.002;2024-03-02T05:48:53;97140.44;;;6.14;100.00
80976;BME280;70437;49.466;11.002;2024-03-02T05:51:28;97144.56;;;6.10;100.00
80976;BME280;70437;49.466;11.002;2024-03-02T05:53:58;97149.09;;;6.09;100.00
80976;BME280;70437;49.466;11.002;2024-03-02T05:56:27;97150.94;;;6.08;100.00
80976;BME280;70437;49.466;11.002;2024-03-02T05:58:58;97143.38;;;6.05;100.00
80976;BME280;70437;49.466;11.002;2024-03-02T06:01:42;97135.25;;;6.00;100.00
80976;BME280;70437;49.466;11.002;2024-03-02T06:04:12;97136.50;;;5.98;100.00
80976;BME280;70437;49.466;11.002;2024-03-02T06:06:43;97144.31;;;5.93;100.00
80976;BME280;70437;49.466;11.002;2024-03-02T06:09:14;97142.47;;;5.93;100.00
80976;BME280;70437;49.466;11.002;2024-03-02T06:11:47;97140.19;;;5.97;100.00
80976;BME280;70437;49.466;11.002;2024-03-02T06:14:16;97148.38;;;5.95;100.00
80976;BME280;70437;49.466;11.002;2024-03-02T06:16:46;97143.28;;;5.94;100.00
80976;BME280;70437;49.466;11.002;2024-03-02T06:19:15;97142.06;;;5.90;100.00
80976;BME280;70437;49.466;11.002;2024-03-02T06:21:45;97133.91;;;5.84;100.00
80976;BME280;70437;49.466;11.002;2024-03-02T06:24:19;97147.81;;;5.87;100.00
80976;BME280;70437;49.466;11.002;2024-03-02T06:26:49;97148.41;;;5.89;100.00
80976;BME280;70437;49.466;11.002;2024-03-02T06:29:20;97147.56;;;5.95;100.00
80976;BME280;70437;49.466;11.002;2024-03-02T06:31:50;97155.97;;;5.92;100.00
80976;BME280;70437;49.466;11.002;2024-03-02T06:34:23;97156.19;;;5.90;100.00
80976;BME280;70437;49.466;11.002;2024-03-02T06:36:52;97149.63;;;5.93;100.00
80976;BME280;70437;49.466;11.002;2024-03-02T06:39:22;97148.16;;;5.97;100.00
80976;BME280;70437;49.466;11.002;2024-03-02T06:41:56;97144.47;;;5.98;100.00
80976;BME280;70437;49.466;11.002;2024-03-02T06:44:27;97148.97;;;5.97;100.00
80976;BME280;70437;49.466;11.002;2024-03-02T06:46:57;97146.94;;;5.99;100.00
80976;BME280;70437;49.466;11.002;2024-03-02T06:49:26;97148.31;;;6.02;100.00
80976;BME280;70437;49.466;11.002;2024-03-02T06:51:55;97148.13;;;6.03;100.00
80976;BME280;70437;49.466;11.002;2024-03-02T06:54:27;97139.03;;;6.11;100.00
80976;BME280;70437;49.466;11.002;2024-03-02T06:56:56;97143.91;;;6.14;100.00
80976;BME280;70437;49.466;11.002;2024-03-02T06:59:26;97134.38;;;6.25;100.00
80976;BME280;70437;49.466;11.002;2024-03-02T07:01:55;97141.28;;;6.32;100.00
80976;BME280;70437;49.466;11.002;2024-03-02T07:04:26;97146.47;;;6.64;100.00
80976;BME280;70437;49.466;11.002;2024-03-02T07:06:55;97141.94;;;6.65;100.00
80976;BME280;70437;49.466;11.002;2024-03-02T07:09:35;97146.03;;;6.67;100.00
80976;BME280;70437;49.466;11.002;2024-03-02T07:12:05;97144.09;;;6.74;100.00
80976;BME280;70437;49.466;11.002;2024-03-02T07:14:42;97147.25;;;6.83;100.00
80976;BME280;70437;49.466;11.002;2024-03-02T07:17:37;97157.84;;;6.90;100.00
80976;BME280;70437;49.466;11.002;2024-03-02T07:20:12;97161.28;;;7.08;100.00
80976;BME280;70437;49.466;11.002;2024-03-02T07:22:41;97153.34;;;7.20;100.00
80976;BME280;70437;49.466;11.002;2024-03-02T07:25:17;97158.06;;;7.18;100.00
80976;BME280;70437;49.466;11.002;2024-03-02T07:27:50;97161.41;;;7.44;100.00
80976;BME280;70437;49.466;11.002;2024-03-02T07:30:20;97161.09;;;7.52;100.00
80976;BME280;70437;49.466;11.002;2024-03-02T07:33:00;97164.25;;;7.72;100.00
80976;BME280;70437;49.466;11.002;2024-03-02T07:35:35;97160.47;;;7.68;100.00
80976;BME280;70437;49.466;11.002;2024-03-02T07:38:06;97162.97;;;7.63;100.00
80976;BME280;70437;49.466;11.002;2024-03-02T07:40:54;97166.81;;;7.67;100.00
80976;BME280;70437;49.466;11.002;2024-03-02T07:43:26;97163.25;;;7.73;100.00
80976;BME280;70437;49.466;11.002;2024-03-02T07:46:02;97162.91;;;7.81;100.00
80976;BME280;70437;49.466;11.002;2024-03-02T07:48:38;97165.00;;;7.79;100.00
80976;BME280;70437;49.466;11.002;2024-03-02T07:51:11;97162.75;;;7.76;100.00
80976;BME280;70437;49.466;11.002;2024-03-02T07:53:48;97162.78;;;7.88;100.00
80976;BME280;70437;49.466;11.002;2024-03-02T07:56:28;97163.28;;;7.97;100.00
80976;BME280;70437;49.466;11.002;2024-03-02T07:59:00;97165.38;;;7.95;100.00
80976;BME280;70437;49.466;11.002;2024-03-02T08:01:33;97172.53;;;7.94;100.00
80976;BME280;70437;49.466;11.002;2024-03-02T08:04:04;97170.47;;;7.96;100.00
80976;BME280;70437;49.466;11.002;2024-03-02T08:06:34;97169.66;;;7.96;100.00
80976;BME280;70437;49.466;11.002;2024-03-02T08:09:14;97179.31;;;8.08;100.00
80976;BME280;70437;49.466;11.002;2024-03-02T08:11:54;97171.88;;;8.10;100.00
80976;BME280;70437;49.466;11.002;2024-03-02T08:14:32;97179.06;;;8.10;100.00
80976;BME280;70437;49.466;11.002;2024-03-02T08:17:13;97168.97;;;8.12;100.00
80976;BME280;70437;49.466;11.002;2024-03-02T08:19:45;97167.47;;;8.04;100.00
80976;BME280;70437;49.466;11.002;2024-03-02T08:22:20;97169.44;;;8.21;100.00
80976;BME280;70437;49.466;11.002;2024-03-02T08:24:59;97173.50;;;8.23;100.00
80976;BME280;70437;49.466;11.002;2024-03-02T08:27:32;97174.22;;;8.30;100.00
80976;BME280;70437;49.466;11.002;2024-03-02T08:30:01;97178.19;;;8.40;100.00
80976;BME280;70437;49.466;11.002;2024-03-02T08:32:40;97172.16;;;8.44;100.00
80976;BME280;70437;49.466;11.002;2024-03-02T08:35:11;97170.03;;;8.46;100.00
80976;BME280;70437;49.466;11.002;2024-03-02T08:37:42;97177.69;;;8.43;100.00
80976;BME280;70437;49.466;11.002;2024-03-02T08:40:11;97178.03;;;8.70;100.00
80976;BME280;70437;49.466;11.002;2024-03-02T08:42:47;97173.38;;;8.77;100.00
80976;BME280;70437;49.466;11.002;2024-03-02T08:45:16;97181.34;;;9.00;100.00
80976;BME280;70437;49.466;11.002;2024-03-02T08:47:48;97173.00;;;9.25;100.00
80976;BME280;70437;49.466;11.002;2024-03-02T08:50:17;97174.28;;;9.23;100.00
80976;BME280;70437;49.466;11.002;2024-03-02T08:52:46;97174.88;;;9.25;100.00
80976;BME280;70437;49.466;11.002;2024-03-02T08:55:18;97181.31;;;9.41;100.00
80976;BME280;70437;49.466;11.002;2024-03-02T08:57:49;97176.47;;;9.54;100.00
80976;BME280;70437;49.466;11.002;2024-03-02T09:00:21;97175.19;;;9.57;100.00
80976;BME280;70437;49.466;11.002;2024-03-02T09:02:51;97175.59;;;9.49;100.00
80976;BME280;70437;49.466;11.002;2024-03-02T09:05:21;97185.81;;;9.52;100.00
80976;BME280;70437;49.466;11.002;2024-03-02T09:07:52;97186.16;;;9.72;100.00
80976;BME280;70437;49.466;11.002;2024-03-02T09:10:21;97178.84;;;9.68;100.00
80976;BME280;70437;49.466;11.002;2024-03-02T09:12:58;97180.47;;;9.69;100.00
80976;BME280;70437;49.466;11.002;2024-03-02T09:15:31;97175.75;;;9.59;100.00
80976;BME280;70437;49.466;11.002;2024-03-02T09:18:04;97175.47;;;9.72;100.00
80976;BME280;70437;49.466;11.002;2024-03-02T09:20:35;97180.66;;;9.79;100.00
80976;BME280;70437;49.466;11.002;2024-03-02T09:23:07;97175.22;;;9.91;100.00
80976;BME280;70437;49.466;11.002;2024-03-02T09:25:40;97170.53;;;9.98;100.00
80976;BME280;70437;49.466;11.002;2024-03-02T09:28:26;97164.13;;;9.99;100.00
80976;BME280;70437;49.466;11.002;2024-03-02T09:30:57;97158.97;;;10.09;100.00
80976;BME280;70437;49.466;11.002;2024-03-02T09:33:28;97168.38;;;10.28;100.00
80976;BME280;70437;49.466;11.002;2024-03-02T09:35:58;97168.31;;;10.62;100.00
80976;BME280;70437;49.466;11.002;2024-03-02T09:38:28;97168.84;;;10.81;100.00
80976;BME280;70437;49.466;11.002;2024-03-02T09:40:59;97173.25;;;10.70;100.00
80976;BME280;70437;49.466;11.002;2024-03-02T09:43:32;97174.13;;;10.76;100.00
80976;BME280;70437;49.466;11.002;2024-03-02T09:46:16;97172.75;;;10.73;100.00
80976;BME280;70437;49.466;11.002;2024-03-02T09:48:55;97179.84;;;10.62;100.00
80976;BME280;70437;49.466;11.002;2024-03-02T09:51:25;97164.53;;;10.80;100.00
80976;BME280;70437;49.466;11.002;2024-03-02T09:53:55;97170.59;;;10.92;100.00
80976;BME280;70437;49.466;11.002;2024-03-02T09:56:42;97165.66;;;11.06;100.00
80976;BME280;70437;49.466;11.002;2024-03-02T09:59:16;97166.47;;;11.06;100.00
80976;BME280;70437;49.466;11.002;2024-03-02T10:01:58;97167.53;;;11.05;100.00
80976;BME280;70437;49.466;11.002;2024-03-02T10:04:32;97163.41;;;11.20;100.00
80976;BME280;70437;49.466;11.002;2024-03-02T10:07:11;97165.59;;;11.23;100.00
80976;BME280;70437;49.466;11.002;2024-03-02T10:09:42;97169.31;;;11.44;100.00
80976;BME280;70437;49.466;11.002;2024-03-02T10:12:22;97165.34;;;11.51;100.00
80976;BME280;70437;49.466;11.002;2024-03-02T10:15:06;97163.06;;;11.65;100.00
80976;BME280;70437;49.466;11.002;2024-03-02T10:17:39;97171.09;;;11.87;100.00
80976;BME280;70437;49.466;11.002;2024-03-02T10:20:28;97162.88;;;11.99;100.00
80976;BME280;70437;49.466;11.002;2024-03-02T10:23:10;97168.94;;;12.16;100.00
80976;BME280;70437;49.466;11.002;2024-03-02T10:25:42;97166.34;;;12.31;100.00
80976;BME280;70437;49.466;11.002;2024-03-02T10:28:26;97162.63;;;12.32;100.00
80976;BME280;70437;49.466;11.002;2024-03-02T10:31:00;97164.56;;;12.42;100.00
80976;BME280;70437;49.466;11.002;2024-03-02T10:33:35;97164.38;;;12.59;100.00
80976;BME280;70437;49.466;11.002;2024-03-02T10:36:05;97157.91;;;12.55;100.00
80976;BME280;70437;49.466;11.002;2024-03-02T10:38:40;97149.09;;;12.64;100.00
80976;BME280;70437;49.466;11.002;2024-03-02T10:41:11;97157.75;;;12.77;100.00
80976;BME280;70437;49.466;11.002;2024-03-02T10:43:45;97153.22;;;12.77;100.00
80976;BME280;70437;49.466;11.002;2024-03-02T10:46:19;97148.63;;;12.73;99.12
80976;BME280;70437;49.466;11.002;2024-03-02T10:48:52;97149.41;;;12.68;100.00
80976;BME280;70437;49.466;11.002;2024-03-02T10:51:25;97139.19;;;12.70;99.44
80976;BME280;70437;49.466;11.002;2024-03-02T10:54:02;97139.97;;;12.65;98.96
80976;BME280;70437;49.466;11.002;2024-03-02T10:56:34;97144.06;;;12.36;100.00
80976;BME280;70437;49.466;11.002;2024-03-02T10:59:16;97141.97;;;12.38;100.00
80976;BME280;70437;49.466;11.002;2024-03-02T11:01:57;97130.00;;;12.61;100.00
80976;BME280;70437;49.466;11.002;2024-03-02T11:04:34;97125.50;;;12.77;98.36
80976;BME280;70437;49.466;11.002;2024-03-02T11:07:09;97125.69;;;13.18;94.68
80976;BME280;70437;49.466;11.002;2024-03-02T11:09:45;97118.38;;;13.08;95.77
80976;BME280;70437;49.466;11.002;2024-03-02T11:12:38;97120.19;;;12.92;97.59
80976;BME280;70437;49.466;11.002;2024-03-02T11:15:11;97118.59;;;12.96;95.93
80976;BME280;70437;49.466;11.002;2024-03-02T11:17:54;97109.44;;;12.87;96.73
80976;BME280;70437;49.466;11.002;2024-03-02T11:20:28;97113.16;;;12.81;97.13
80976;BME280;70437;49.466;11.002;2024-03-02T11:23:05;97112.91;;;12.82;96.63
80976;BME280;70437;49.466;11.002;2024-03-02T11:25:36;97120.50;;;13.01;95.83
80976;BME280;70437;49.466;11.002;2024-03-02T11:28:11;97119.75;;;13.15;94.13
80976;BME280;70437;49.466;11.002;2024-03-02T11:31:06;97119.00;;;13.30;91.69
80976;BME280;70437;49.466;11.002;2024-03-02T11:33:42;97106.91;;;13.33;92.39
80976;BME280;70437;49.466;11.002;2024-03-02T11:36:15;97104.75;;;13.30;93.12
80976;BME280;70437;49.466;11.002;2024-03-02T11:38:48;97098.56;;;13.34;92.06
80976;BME280;70437;49.466;11.002;2024-03-02T11:41:27;97108.00;;;13.32;90.10
80976;BME280;70437;49.466;11.002;2024-03-02T11:43:59;97105.06;;;13.59;89.43
80976;BME280;70437;49.466;11.002;2024-03-02T11:46:31;97106.72;;;13.80;87.15
80976;BME280;70437;49.466;11.002;2024-03-02T11:49:07;97106.69;;;13.96;86.26
80976;BME280;70437;49.466;11.002;2024-03-02T11:51:38;97112.34;;;13.74;86.82
80976;BME280;70437;49.466;11.002;2024-03-02T11:54:24;97098.88;;;13.53;86.76
80976;BME280;70437;49.466;11.002;2024-03-02T11:57:26;97094.56;;;13.47;85.93
80976;BME280;70437;49.466;11.002;2024-03-02T12:00:17;97079.38;;;13.10;88.14
80976;BME280;70437;49.466;11.002;2024-03-02T12:03:00;97093.38;;;13.12;85.40
80976;BME280;70437;49.466;11.002;2024-03-02T12:05:32;97091.09;;;13.72;80.91
80976;BME280;70437;49.466;11.002;2024-03-02T12:08:11;97092.41;;;13.95;76.86
80976;BME280;70437;49.466;11.002;2024-03-02T12:10:56;97088.88;;;14.30;73.45
80976;BME280;70437;49.466;11.002;2024-03-02T12:13:29;97088.31;;;14.38;71.13
80976;BME280;70437;49.466;11.002;2024-03-02T12:16:23;97080.25;;;14.49;69.91
80976;BME280;70437;49.466;11.002;2024-03-02T12:18:52;97081.25;;;14.68;67.80
80976;BME280;70437;49.466;11.002;2024-03-02T12:21:24;97074.88;;;14.23;68.61
80976;BME280;70437;49.466;11.002;2024-03-02T12:23:57;97078.69;;;13.97;70.35
80976;BME280;70437;49.466;11.002;2024-03-02T12:26:27;97076.22;;;14.31;68.88
80976;BME280;70437;49.466;11.002;2024-03-02T12:28:59;97075.63;;;14.44;67.16
80976;BME280;70437;49.466;11.002;2024-03-02T12:31:39;97074.28;;;14.62;65.33
80976;BME280;70437;49.466;11.002;2024-03-02T12:34:09;97066.41;;;14.71;64.73
80976;BME280;70437;49.466;11.002;2024-03-02T12:36:43;97073.19;;;14.58;65.26
80976;BME280;70437;49.466;11.002;2024-03-02T12:39:18;97064.34;;;14.52;66.34
80976;BME280;70437;49.466;11.002;2024-03-02T12:42:11;97059.19;;;14.61;65.82
80976;BME280;70437;49.466;11.002;2024-03-02T12:44:43;97046.72;;;14.75;64.65
80976;BME280;70437;49.466;11.002;2024-03-02T12:47:16;97052.84;;;15.35;62.51
80976;BME280;70437;49.466;11.002;2024-03-02T12:49:54;97050.50;;;15.97;59.13
80976;BME280;70437;49.466;11.002;2024-03-02T12:52:41;97039.41;;;16.28;57.10
80976;BME280;70437;49.466;11.002;2024-03-02T12:55:17;97047.06;;;16.92;55.27
80976;BME280;70437;49.466;11.002;2024-03-02T12:57:49;97035.13;;;16.69;55.23
80976;BME280;70437;49.466;11.002;2024-03-02T13:00:31;97039.13;;;16.53;55.26
80976;BME280;70437;49.466;11.002;2024-03-02T13:03:13;97027.78;;;16.75;54.76
80976;BME280;70437;49.466;11.002;2024-03-02T13:06:28;97030.44;;;17.18;53.23
80976;BME280;70437;49.466;11.002;2024-03-02T13:09:24;97027.75;;;17.37;52.91
80976;BME280;70437;49.466;11.002;2024-03-02T13:11:54;97028.63;;;17.51;52.87
80976;BME280;70437;49.466;11.002;2024-03-02T13:14:26;97029.28;;;17.43;52.44
80976;BME280;70437;49.466;11.002;2024-03-02T13:16:57;97026.56;;;16.86;52.88
80976;BME280;70437;49.466;11.002;2024-03-02T13:19:33;97025.41;;;17.11;52.49